Westview Chinook — VG3278 — position and weather

sailwx.info

Track history (hours):
 
Tides and Currents Weather Stations Pressure Air Temp Water Temp Dewpoint Dewpoint Depression Visibility Wind Speed Wind Dir Waves Ship Positions

Westview Chinook

Last reported at 2014-Oct-01 07:33 UTC. Time now 2014-Oct-01 08:22 UTC.
Position N 49°14' W 123°14'.

Length 16 m; draft 3.5 m.

Type: Towing. MMSI: 316005622.

Date/timePositionNaut miles runAvg speedWind from/ knotsBaromVisibWave heightAir tempDewpointWater temp
2014-Oct-01 07:33N 49°14' W 123°14'8 8.4
2014-Oct-01 06:33N 49°12' W 123°02'5 4.8
2014-Oct-01 05:33N 49°12' W 122°54'2 2.0
2014-Oct-01 04:33N 49°13' W 122°52'6 5.7
2014-Oct-01 03:33N 49°11' W 122°43'1 0.9
2014-Oct-01 02:33N 49°12' W 122°44'6 6.3
2014-Oct-01 01:33N 49°13' W 122°53'5 4.6
2014-Oct-01 00:30N 49°09' W 122°58'4 3.8
2014-Sep-30 23:29N 49°12' W 122°54'6 5.9
2014-Sep-30 22:33N 49°13' W 122°45'3 3.1
2014-Sep-30 21:28N 49°11' W 122°41'3 3.2
2014-Sep-30 20:32N 49°13' W 122°45'0 0.0
2014-Sep-30 19:32N 49°13' W 122°44'2 2.1
2014-Sep-30 18:33N 49°15' W 122°44'0 0.1
2014-Sep-30 17:33N 49°15' W 122°43'2 2.3
2014-Sep-30 16:33N 49°13' W 122°45'6 6.5
2014-Sep-30 15:33N 49°12' W 122°55'1 0.5
2014-Sep-30 14:33N 49°11' W 122°55'0 0.2
2014-Sep-30 13:33N 49°11' W 122°55'2 0.4
2014-Sep-30 10:08N 49°13' W 122°54'1 1.7
2014-Sep-30 09:33N 49°12' W 122°54'3 2.7
2014-Sep-30 08:33N 49°09' W 122°57'0 0.4
2014-Sep-30 07:33N 49°09' W 122°57'3 2.8
2014-Sep-30 06:33N 49°12' W 122°55'6 5.2
2014-Sep-30 05:28N 49°12' W 123°04'1 1.5
2014-Sep-30 04:33N 49°12' W 123°02'6 5.7
2014-Sep-30 03:33N 49°13' W 122°53'4 3.7
2014-Sep-30 02:32N 49°13' W 122°47'4 3.8
2014-Sep-30 01:27N 49°11' W 122°42'4 4.2
2014-Sep-30 00:31N 49°14' W 122°46'2 2.5
2014-Sep-29 23:33N 49°13' W 122°49'6 6.1
2014-Sep-29 22:33N 49°09' W 122°57'4 3.9
2014-Sep-29 21:33N 49°09' W 123°03'5 5.0
2014-Sep-29 20:33N 49°07' W 123°10'5 5.1
2014-Sep-29 19:33N 49°07' W 123°17'5 5.0
2014-Sep-29 18:34N 49°12' W 123°18'4 3.7
2014-Sep-29 17:33N 49°15' W 123°16'2 1.9
2014-Sep-29 16:33N 49°14' W 123°13'5 5.5
2014-Sep-29 15:33N 49°12' W 123°05'0 0.0
2014-Sep-29 14:33N 49°12' W 123°05'2 1.9
2014-Sep-29 13:33N 49°12' W 123°08'0 0.0
2014-Sep-29 12:33N 49°12' W 123°08'0 0.0
2014-Sep-29 11:33N 49°12' W 123°08'4 3.7
2014-Sep-29 10:33N 49°14' W 123°13'7 7.0
2014-Sep-29 09:33N 49°15' W 123°24'1010.2
2014-Sep-29 08:33N 49°14' W 123°39'9 9.2
2014-Sep-29 07:33N 49°10' W 123°53'2 1.8
2014-Sep-29 06:33N 49°12' W 123°52'8 7.6
2014-Sep-29 05:33N 49°11' W 123°41'8 8.3
2014-Sep-29 04:33N 49°08' W 123°29'8 7.9
2014-Sep-29 03:33N 49°07' W 123°17'8 8.3
2014-Sep-29 02:33N 49°07' W 123°04'7 6.9
2014-Sep-29 01:33N 49°11' W 122°55'7 6.6
2014-Sep-29 00:31N 49°14' W 122°46'3 0.2
2014-Sep-28 12:32N 49°12' W 122°43'1 1.2
2014-Sep-28 11:33N 49°13' W 122°44'6 5.8
2014-Sep-28 10:33N 49°13' W 122°53'5 4.6
2014-Sep-28 09:33N 49°10' W 122°58'3 2.8
2014-Sep-28 08:33N 49°09' W 123°02'5 4.6
2014-Sep-28 07:33N 49°07' W 123°08'6 6.0
2014-Sep-28 06:33N 49°07' W 123°17'7 7.3
2014-Sep-28 05:33N 49°13' W 123°21'3 2.8
2014-Sep-28 04:33N 49°16' W 123°18'4 4.3
2014-Sep-28 03:33N 49°13' W 123°12'4 3.6
2014-Sep-28 02:33N 49°12' W 123°07'2 1.8
2014-Sep-28 01:33N 49°12' W 123°04'1 0.7
2014-Sep-28 00:33N 49°12' W 123°03'2 2.1
2014-Sep-27 23:33N 49°12' W 123°06'5 5.2
2014-Sep-27 22:33N 49°14' W 123°14'5 4.6
2014-Sep-27 21:34N 49°18' W 123°13'5 5.4
2014-Sep-27 20:34N 49°14' W 123°18'7 7.5
2014-Sep-27 19:34N 49°06' W 123°18'8 8.3
2014-Sep-27 18:34N 49°07' W 123°06'7 7.3
2014-Sep-27 17:34N 49°10' W 122°56'5 5.0
2014-Sep-27 16:32N 49°13' W 122°50'0 0.0
2014-Sep-27 15:33N 49°13' W 122°50'0 0.0
2014-Sep-27 14:33N 49°13' W 122°50'8 7.5
2014-Sep-27 13:33N 49°09' W 122°60'2 2.2
2014-Sep-27 12:33N 49°09' W 123°03'8 8.0
2014-Sep-27 11:33N 49°08' W 123°15'5 5.3
2014-Sep-27 10:33N 49°12' W 123°18'3 3.4
2014-Sep-27 09:33N 49°16' W 123°17'3 3.0
2014-Sep-27 08:33N 49°14' W 123°13'0 0.0
2014-Sep-27 07:33N 49°14' W 123°13'4 3.7
2014-Sep-27 06:33N 49°16' W 123°17'8 7.5
2014-Sep-27 05:33N 49°19' W 123°06'0 0.0
2014-Sep-27 04:34N 49°19' W 123°06'1 1.3
2014-Sep-27 03:34N 49°19' W 123°08'5 5.4
2014-Sep-27 02:34N 49°18' W 123°16'7 7.4
2014-Sep-27 01:34N 49°12' W 123°09'0 0.5
2014-Sep-27 00:33N 49°12' W 123°08'2 2.1
2014-Sep-26 23:33N 49°13' W 123°11'4 4.4
2014-Sep-26 22:33N 49°15' W 123°17'5 5.1
2014-Sep-26 21:33N 49°13' W 123°10'7 6.5
2014-Sep-26 20:33N 49°12' W 123°00'6 6.3
2014-Sep-26 19:33N 49°13' W 122°51'6 5.6
2014-Sep-26 18:33N 49°09' W 122°57'5 5.0
2014-Sep-26 17:33N 49°13' W 122°52'5 5.3
2014-Sep-26 16:33N 49°15' W 122°44'5 5.3
2014-Sep-26 15:33N 49°13' W 122°52'3 3.1
2014-Sep-26 14:33N 49°11' W 122°55'2 2.1
2014-Sep-26 13:33N 49°09' W 122°57'6 5.8
2014-Sep-26 12:33N 49°07' W 123°05'4 4.1
2014-Sep-26 11:33N 49°09' W 123°00'7 7.1
2014-Sep-26 10:33N 49°13' W 122°51'7 6.3
2014-Sep-26 09:29N 49°11' W 122°41'1 0.7
2014-Sep-26 08:33N 49°11' W 122°40'1 1.4
2014-Sep-26 07:33N 49°12' W 122°42'4 3.7
2014-Sep-26 06:33N 49°13' W 122°47'5 4.9
2014-Sep-26 05:33N 49°12' W 122°55'3 2.6
2014-Sep-26 04:33N 49°10' W 122°57'1 1.3
2014-Sep-26 03:33N 49°10' W 122°55'2 1.7
2014-Sep-26 02:33N 49°09' W 122°58'1 0.6
2014-Sep-26 01:33N 49°10' W 122°57'1 0.6
2014-Sep-26 00:33N 49°10' W 122°56'0 0.2
2014-Sep-25 23:34N 49°10' W 122°56'1 0.5
2014-Sep-25 22:33N 49°10' W 122°56'6 6.4
2014-Sep-25 21:32N 49°13' W 122°48'3 2.7
2014-Sep-25 20:34N 49°13' W 122°44'3 2.6
2014-Sep-25 19:33N 49°11' W 122°41'5 4.7
2014-Sep-25 18:32N 49°13' W 122°47'6 6.2
2014-Sep-25 17:30N 49°12' W 122°57'6 6.7
2014-Sep-25 16:34N 49°12' W 123°07'1 1.0
2014-Sep-25 15:34N 49°12' W 123°08'5 4.9
2014-Sep-25 14:33N 49°14' W 123°15'2 1.7
2014-Sep-25 13:33N 49°13' W 123°13'3 3.3
2014-Sep-25 12:33N 49°12' W 123°08'0 0.0
2014-Sep-25 11:33N 49°12' W 123°08'2 1.8
2014-Sep-25 10:33N 49°12' W 123°06'1 0.8
2014-Sep-25 09:33N 49°12' W 123°07'2 1.6
2014-Sep-25 08:33N 49°12' W 123°04'3 3.0
2014-Sep-25 07:33N 49°11' W 122°60'4 3.7
2014-Sep-25 06:29N 49°12' W 122°54'4 4.2
2014-Sep-25 05:33N 49°09' W 122°57'3 2.8
2014-Sep-25 04:33N 49°12' W 122°55'5 5.5
2014-Sep-25 03:33N 49°13' W 122°47'2 2.4
2014-Sep-25 02:33N 49°12' W 122°44'3 2.7
2014-Sep-25 01:31N 49°12' W 122°39'4 4.1
2014-Sep-25 00:33N 49°13' W 122°45'7 6.7
2014-Sep-24 23:33N 49°12' W 122°55'6 5.3
2014-Sep-24 22:31N 49°12' W 123°04'1 0.5
2014-Sep-24 21:31N 49°12' W 123°03'6 6.2
2014-Sep-24 20:33N 49°12' W 122°54'1 1.1
2014-Sep-24 19:34N 49°12' W 122°55'3 2.9
2014-Sep-24 18:33N 49°09' W 122°58'5 4.8
2014-Sep-24 17:33N 49°13' W 122°53'6 5.7
2014-Sep-24 16:33N 49°13' W 122°45'5 4.6
2014-Sep-24 15:33N 49°13' W 122°52'5 5.5
2014-Sep-24 14:33N 49°12' W 122°44'2 1.8
2014-Sep-24 13:33N 49°13' W 122°46'5 5.1
2014-Sep-24 12:33N 49°13' W 122°54'6 6.5
2014-Sep-24 11:33N 49°09' W 123°02'7 6.5
2014-Sep-24 10:29N 49°13' W 122°53'4 4.1
2014-Sep-24 09:33N 49°10' W 122°56'1 1.1
2014-Sep-24 08:33N 49°09' W 122°58'2 2.2
2014-Sep-24 07:30N 49°12' W 122°57'5 4.9
2014-Sep-24 06:33N 49°12' W 123°04'3 3.2
2014-Sep-24 05:34N 49°11' W 122°60'6 6.0
2014-Sep-24 04:33N 49°13' W 122°51'4 4.2
2014-Sep-24 03:33N 49°13' W 122°44'4 3.5
2014-Sep-24 02:31N 49°12' W 122°39'3 3.5
2014-Sep-24 01:33N 49°11' W 122°34'5 4.1
2014-Sep-24 00:23N 49°10' W 122°27'5 5.2
2014-Sep-23 23:31N 49°08' W 122°21'1 1.3
2014-Sep-23 22:24N 49°07' W 122°19'2 1.8
2014-Sep-23 21:32N 49°08' W 122°21'7 5.6
2014-Sep-23 20:22N 49°10' W 122°31'5 6.3
2014-Sep-23 19:32N 49°12' W 122°38'4 3.5
2014-Sep-23 18:32N 49°11' W 122°43'6 6.4
2014-Sep-23 17:34N 49°13' W 122°52'5 4.7
2014-Sep-23 16:32N 49°13' W 122°44'1 1.3
2014-Sep-23 15:33N 49°14' W 122°46'2 1.6
2014-Sep-23 14:33N 49°15' W 122°44'1 0.9
2014-Sep-23 13:33N 49°14' W 122°45'4 4.0
2014-Sep-23 12:33N 49°13' W 122°51'6 5.6
2014-Sep-23 11:33N 49°09' W 122°57'7 6.7
2014-Sep-23 10:33N 49°13' W 122°49'6 5.6
2014-Sep-23 09:33N 49°11' W 122°41'7 7.0
2014-Sep-23 08:33N 49°13' W 122°51'3 2.7
2014-Sep-23 07:33N 49°12' W 122°55'4 4.3
2014-Sep-23 06:33N 49°13' W 122°49'6 6.3
2014-Sep-23 05:33N 49°10' W 122°57'4 3.7
2014-Sep-23 04:33N 49°13' W 122°53'6 6.4
2014-Sep-23 03:33N 49°12' W 122°44'3 2.8
2014-Sep-23 02:28N 49°13' W 122°48'7 7.7
2014-Sep-23 01:33N 49°09' W 122°57'4 4.3
2014-Sep-23 00:33N 49°13' W 122°53'5 5.4
2014-Sep-22 23:33N 49°13' W 122°45'3 3.0
2014-Sep-22 22:32N 49°11' W 122°41'0 0.2
2014-Sep-22 21:33N 49°11' W 122°41'4 3.9
2014-Sep-22 20:33N 49°13' W 122°47'5 5.4
2014-Sep-22 19:33N 49°12' W 122°55'3 2.6
2014-Sep-22 18:33N 49°10' W 122°57'5 5.0
2014-Sep-22 17:33N 49°13' W 122°52'6 5.7
2014-Sep-22 16:33N 49°13' W 122°44'2 2.2
2014-Sep-22 15:33N 49°11' W 122°41'0 0.3
2014-Sep-22 14:33N 49°11' W 122°41'2 2.2
2014-Sep-22 13:33N 49°13' W 122°44'2 0.8
2014-Sep-22 11:06N 49°14' W 122°46'0 0.0
2014-Sep-22 10:33N 49°14' W 122°46'0 0.0
2014-Sep-22 09:33N 49°14' W 122°46'0 0.0
2014-Sep-22 08:32N 49°14' W 122°46'0 0.0
2014-Sep-22 07:32N 49°14' W 122°46'0 0.0
2014-Sep-22 06:19N 49°14' W 122°46'0 0.0
2014-Sep-22 05:33N 49°14' W 122°46'0 0.0
2014-Sep-22 04:33N 49°14' W 122°46'0 0.0
2014-Sep-22 03:33N 49°14' W 122°46'0 0.0
2014-Sep-21 22:31N 49°14' W 122°46'0 0.0
2014-Sep-21 21:33N 49°14' W 122°46'0 0.0
2014-Sep-21 20:33N 49°14' W 122°46'0 0.0
2014-Sep-21 19:33N 49°14' W 122°46'0 0.0
2014-Sep-21 18:33N 49°14' W 122°46'0 0.0
2014-Sep-21 17:33N 49°14' W 122°46'0 0.0
2014-Sep-21 16:33N 49°14' W 122°46'0 0.0
2014-Sep-21 15:33N 49°14' W 122°46'0 0.0
2014-Sep-21 14:32N 49°14' W 122°46'0 0.0
2014-Sep-21 13:33N 49°14' W 122°46'0 0.0
2014-Sep-21 12:28N 49°14' W 122°46'0 0.0
2014-Sep-21 11:33N 49°14' W 122°46'0 0.0
2014-Sep-21 10:33N 49°14' W 122°46'0 0.0
2014-Sep-21 09:33N 49°14' W 122°46'4 3.9
2014-Sep-21 08:33N 49°13' W 122°52'8 7.5
2014-Sep-21 07:33N 49°09' W 123°02'  
Track history (hours):
 
Tides and Currents Weather Stations Pressure Air Temp Water Temp Dewpoint Dewpoint Depression Visibility Wind Speed Wind Dir Waves Ship Positions

Westview Chinook

Last reported at 2014-Oct-01 07:33 UTC. Time now 2014-Oct-01 08:22 UTC.
Position N 49°14' W 123°14'.

Length 16 m; draft 3.5 m.

Type: Towing. MMSI: 316005622.

Date/timePositionNaut miles runAvg speedWind from/ knotsBaromVisibWave heightAir tempDewpointWater temp
2014-Oct-01 07:33N 49°14' W 123°14'8 8.4
2014-Oct-01 06:33N 49°12' W 123°02'5 4.8
2014-Oct-01 05:33N 49°12' W 122°54'2 2.0
2014-Oct-01 04:33N 49°13' W 122°52'6 5.7
2014-Oct-01 03:33N 49°11' W 122°43'1 0.9
2014-Oct-01 02:33N 49°12' W 122°44'6 6.3
2014-Oct-01 01:33N 49°13' W 122°53'5 4.6
2014-Oct-01 00:30N 49°09' W 122°58'4 3.8
2014-Sep-30 23:29N 49°12' W 122°54'6 5.9
2014-Sep-30 22:33N 49°13' W 122°45'3 3.1
2014-Sep-30 21:28N 49°11' W 122°41'3 3.2
2014-Sep-30 20:32N 49°13' W 122°45'0 0.0
2014-Sep-30 19:32N 49°13' W 122°44'2 2.1
2014-Sep-30 18:33N 49°15' W 122°44'0 0.1
2014-Sep-30 17:33N 49°15' W 122°43'2 2.3
2014-Sep-30 16:33N 49°13' W 122°45'6 6.5
2014-Sep-30 15:33N 49°12' W 122°55'1 0.5
2014-Sep-30 14:33N 49°11' W 122°55'0 0.2
2014-Sep-30 13:33N 49°11' W 122°55'2 0.4
2014-Sep-30 10:08N 49°13' W 122°54'1 1.7
2014-Sep-30 09:33N 49°12' W 122°54'3 2.7
2014-Sep-30 08:33N 49°09' W 122°57'0 0.4
2014-Sep-30 07:33N 49°09' W 122°57'3 2.8
2014-Sep-30 06:33N 49°12' W 122°55'6 5.2
2014-Sep-30 05:28N 49°12' W 123°04'1 1.5
2014-Sep-30 04:33N 49°12' W 123°02'6 5.7
2014-Sep-30 03:33N 49°13' W 122°53'4 3.7
2014-Sep-30 02:32N 49°13' W 122°47'4 3.8
2014-Sep-30 01:27N 49°11' W 122°42'4 4.2
2014-Sep-30 00:31N 49°14' W 122°46'2 2.5
2014-Sep-29 23:33N 49°13' W 122°49'6 6.1
2014-Sep-29 22:33N 49°09' W 122°57'4 3.9
2014-Sep-29 21:33N 49°09' W 123°03'5 5.0
2014-Sep-29 20:33N 49°07' W 123°10'5 5.1
2014-Sep-29 19:33N 49°07' W 123°17'5 5.0
2014-Sep-29 18:34N 49°12' W 123°18'4 3.7
2014-Sep-29 17:33N 49°15' W 123°16'2 1.9
2014-Sep-29 16:33N 49°14' W 123°13'5 5.5
2014-Sep-29 15:33N 49°12' W 123°05'0 0.0
2014-Sep-29 14:33N 49°12' W 123°05'2 1.9
2014-Sep-29 13:33N 49°12' W 123°08'0 0.0
2014-Sep-29 12:33N 49°12' W 123°08'0 0.0
2014-Sep-29 11:33N 49°12' W 123°08'4 3.7
2014-Sep-29 10:33N 49°14' W 123°13'7 7.0
2014-Sep-29 09:33N 49°15' W 123°24'1010.2
2014-Sep-29 08:33N 49°14' W 123°39'9 9.2
2014-Sep-29 07:33N 49°10' W 123°53'2 1.8
2014-Sep-29 06:33N 49°12' W 123°52'8 7.6
2014-Sep-29 05:33N 49°11' W 123°41'8 8.3
2014-Sep-29 04:33N 49°08' W 123°29'8 7.9
2014-Sep-29 03:33N 49°07' W 123°17'8 8.3
2014-Sep-29 02:33N 49°07' W 123°04'7 6.9
2014-Sep-29 01:33N 49°11' W 122°55'7 6.6
2014-Sep-29 00:31N 49°14' W 122°46'3 0.2
2014-Sep-28 12:32N 49°12' W 122°43'1 1.2
2014-Sep-28 11:33N 49°13' W 122°44'6 5.8
2014-Sep-28 10:33N 49°13' W 122°53'5 4.6
2014-Sep-28 09:33N 49°10' W 122°58'3 2.8
2014-Sep-28 08:33N 49°09' W 123°02'5 4.6
2014-Sep-28 07:33N 49°07' W 123°08'6 6.0
2014-Sep-28 06:33N 49°07' W 123°17'7 7.3
2014-Sep-28 05:33N 49°13' W 123°21'3 2.8
2014-Sep-28 04:33N 49°16' W 123°18'4 4.3
2014-Sep-28 03:33N 49°13' W 123°12'4 3.6
2014-Sep-28 02:33N 49°12' W 123°07'2 1.8
2014-Sep-28 01:33N 49°12' W 123°04'1 0.7
2014-Sep-28 00:33N 49°12' W 123°03'2 2.1
2014-Sep-27 23:33N 49°12' W 123°06'5 5.2
2014-Sep-27 22:33N 49°14' W 123°14'5 4.6
2014-Sep-27 21:34N 49°18' W 123°13'5 5.4
2014-Sep-27 20:34N 49°14' W 123°18'7 7.5
2014-Sep-27 19:34N 49°06' W 123°18'8 8.3
2014-Sep-27 18:34N 49°07' W 123°06'7 7.3
2014-Sep-27 17:34N 49°10' W 122°56'5 5.0
2014-Sep-27 16:32N 49°13' W 122°50'0 0.0
2014-Sep-27 15:33N 49°13' W 122°50'0 0.0
2014-Sep-27 14:33N 49°13' W 122°50'8 7.5
2014-Sep-27 13:33N 49°09' W 122°60'2 2.2
2014-Sep-27 12:33N 49°09' W 123°03'8 8.0
2014-Sep-27 11:33N 49°08' W 123°15'5 5.3
2014-Sep-27 10:33N 49°12' W 123°18'3 3.4
2014-Sep-27 09:33N 49°16' W 123°17'3 3.0
2014-Sep-27 08:33N 49°14' W 123°13'0 0.0
2014-Sep-27 07:33N 49°14' W 123°13'4 3.7
2014-Sep-27 06:33N 49°16' W 123°17'8 7.5
2014-Sep-27 05:33N 49°19' W 123°06'0 0.0
2014-Sep-27 04:34N 49°19' W 123°06'1 1.3
2014-Sep-27 03:34N 49°19' W 123°08'5 5.4
2014-Sep-27 02:34N 49°18' W 123°16'7 7.4
2014-Sep-27 01:34N 49°12' W 123°09'0 0.5
2014-Sep-27 00:33N 49°12' W 123°08'2 2.1
2014-Sep-26 23:33N 49°13' W 123°11'4 4.4
2014-Sep-26 22:33N 49°15' W 123°17'5 5.1
2014-Sep-26 21:33N 49°13' W 123°10'7 6.5
2014-Sep-26 20:33N 49°12' W 123°00'6 6.3
2014-Sep-26 19:33N 49°13' W 122°51'6 5.6
2014-Sep-26 18:33N 49°09' W 122°57'5 5.0
2014-Sep-26 17:33N 49°13' W 122°52'5 5.3
2014-Sep-26 16:33N 49°15' W 122°44'5 5.3
2014-Sep-26 15:33N 49°13' W 122°52'3 3.1
2014-Sep-26 14:33N 49°11' W 122°55'2 2.1
2014-Sep-26 13:33N 49°09' W 122°57'6 5.8
2014-Sep-26 12:33N 49°07' W 123°05'4 4.1
2014-Sep-26 11:33N 49°09' W 123°00'7 7.1
2014-Sep-26 10:33N 49°13' W 122°51'7 6.3
2014-Sep-26 09:29N 49°11' W 122°41'1 0.7
2014-Sep-26 08:33N 49°11' W 122°40'1 1.4
2014-Sep-26 07:33N 49°12' W 122°42'4 3.7
2014-Sep-26 06:33N 49°13' W 122°47'5 4.9
2014-Sep-26 05:33N 49°12' W 122°55'3 2.6
2014-Sep-26 04:33N 49°10' W 122°57'1 1.3
2014-Sep-26 03:33N 49°10' W 122°55'2 1.7
2014-Sep-26 02:33N 49°09' W 122°58'1 0.6
2014-Sep-26 01:33N 49°10' W 122°57'1 0.6
2014-Sep-26 00:33N 49°10' W 122°56'0 0.2
2014-Sep-25 23:34N 49°10' W 122°56'1 0.5
2014-Sep-25 22:33N 49°10' W 122°56'6 6.4
2014-Sep-25 21:32N 49°13' W 122°48'3 2.7
2014-Sep-25 20:34N 49°13' W 122°44'3 2.6
2014-Sep-25 19:33N 49°11' W 122°41'5 4.7
2014-Sep-25 18:32N 49°13' W 122°47'6 6.2
2014-Sep-25 17:30N 49°12' W 122°57'6 6.7
2014-Sep-25 16:34N 49°12' W 123°07'1 1.0
2014-Sep-25 15:34N 49°12' W 123°08'5 4.9
2014-Sep-25 14:33N 49°14' W 123°15'2 1.7
2014-Sep-25 13:33N 49°13' W 123°13'3 3.3
2014-Sep-25 12:33N 49°12' W 123°08'0 0.0
2014-Sep-25 11:33N 49°12' W 123°08'2 1.8
2014-Sep-25 10:33N 49°12' W 123°06'1 0.8
2014-Sep-25 09:33N 49°12' W 123°07'2 1.6
2014-Sep-25 08:33N 49°12' W 123°04'3 3.0
2014-Sep-25 07:33N 49°11' W 122°60'4 3.7
2014-Sep-25 06:29N 49°12' W 122°54'4 4.2
2014-Sep-25 05:33N 49°09' W 122°57'3 2.8
2014-Sep-25 04:33N 49°12' W 122°55'5 5.5
2014-Sep-25 03:33N 49°13' W 122°47'2 2.4
2014-Sep-25 02:33N 49°12' W 122°44'3 2.7
2014-Sep-25 01:31N 49°12' W 122°39'4 4.1
2014-Sep-25 00:33N 49°13' W 122°45'7 6.7
2014-Sep-24 23:33N 49°12' W 122°55'6 5.3
2014-Sep-24 22:31N 49°12' W 123°04'1 0.5
2014-Sep-24 21:31N 49°12' W 123°03'6 6.2
2014-Sep-24 20:33N 49°12' W 122°54'1 1.1
2014-Sep-24 19:34N 49°12' W 122°55'3 2.9
2014-Sep-24 18:33N 49°09' W 122°58'5 4.8
2014-Sep-24 17:33N 49°13' W 122°53'6 5.7
2014-Sep-24 16:33N 49°13' W 122°45'5 4.6
2014-Sep-24 15:33N 49°13' W 122°52'5 5.5
2014-Sep-24 14:33N 49°12' W 122°44'2 1.8
2014-Sep-24 13:33N 49°13' W 122°46'5 5.1
2014-Sep-24 12:33N 49°13' W 122°54'6 6.5
2014-Sep-24 11:33N 49°09' W 123°02'7 6.5
2014-Sep-24 10:29N 49°13' W 122°53'4 4.1
2014-Sep-24 09:33N 49°10' W 122°56'1 1.1
2014-Sep-24 08:33N 49°09' W 122°58'2 2.2
2014-Sep-24 07:30N 49°12' W 122°57'5 4.9
2014-Sep-24 06:33N 49°12' W 123°04'3 3.2
2014-Sep-24 05:34N 49°11' W 122°60'6 6.0
2014-Sep-24 04:33N 49°13' W 122°51'4 4.2
2014-Sep-24 03:33N 49°13' W 122°44'4 3.5
2014-Sep-24 02:31N 49°12' W 122°39'3 3.5
2014-Sep-24 01:33N 49°11' W 122°34'5 4.1
2014-Sep-24 00:23N 49°10' W 122°27'5 5.2
2014-Sep-23 23:31N 49°08' W 122°21'1 1.3
2014-Sep-23 22:24N 49°07' W 122°19'2 1.8
2014-Sep-23 21:32N 49°08' W 122°21'7 5.6
2014-Sep-23 20:22N 49°10' W 122°31'5 6.3
2014-Sep-23 19:32N 49°12' W 122°38'4 3.5
2014-Sep-23 18:32N 49°11' W 122°43'6 6.4
2014-Sep-23 17:34N 49°13' W 122°52'5 4.7
2014-Sep-23 16:32N 49°13' W 122°44'1 1.3
2014-Sep-23 15:33N 49°14' W 122°46'2 1.6
2014-Sep-23 14:33N 49°15' W 122°44'1 0.9
2014-Sep-23 13:33N 49°14' W 122°45'4 4.0
2014-Sep-23 12:33N 49°13' W 122°51'6 5.6
2014-Sep-23 11:33N 49°09' W 122°57'7 6.7
2014-Sep-23 10:33N 49°13' W 122°49'6 5.6
2014-Sep-23 09:33N 49°11' W 122°41'7 7.0
2014-Sep-23 08:33N 49°13' W 122°51'3 2.7
2014-Sep-23 07:33N 49°12' W 122°55'4 4.3
2014-Sep-23 06:33N 49°13' W 122°49'6 6.3
2014-Sep-23 05:33N 49°10' W 122°57'4 3.7
2014-Sep-23 04:33N 49°13' W 122°53'6 6.4
2014-Sep-23 03:33N 49°12' W 122°44'3 2.8
2014-Sep-23 02:28N 49°13' W 122°48'7 7.7
2014-Sep-23 01:33N 49°09' W 122°57'4 4.3
2014-Sep-23 00:33N 49°13' W 122°53'5 5.4
2014-Sep-22 23:33N 49°13' W 122°45'3 3.0
2014-Sep-22 22:32N 49°11' W 122°41'0 0.2
2014-Sep-22 21:33N 49°11' W 122°41'4 3.9
2014-Sep-22 20:33N 49°13' W 122°47'5 5.4
2014-Sep-22 19:33N 49°12' W 122°55'3 2.6
2014-Sep-22 18:33N 49°10' W 122°57'5 5.0
2014-Sep-22 17:33N 49°13' W 122°52'6 5.7
2014-Sep-22 16:33N 49°13' W 122°44'2 2.2
2014-Sep-22 15:33N 49°11' W 122°41'0 0.3
2014-Sep-22 14:33N 49°11' W 122°41'2 2.2
2014-Sep-22 13:33N 49°13' W 122°44'2 0.8
2014-Sep-22 11:06N 49°14' W 122°46'0 0.0
2014-Sep-22 10:33N 49°14' W 122°46'0 0.0
2014-Sep-22 09:33N 49°14' W 122°46'0 0.0
2014-Sep-22 08:32N 49°14' W 122°46'0 0.0
2014-Sep-22 07:32N 49°14' W 122°46'0 0.0
2014-Sep-22 06:19N 49°14' W 122°46'0 0.0
2014-Sep-22 05:33N 49°14' W 122°46'0 0.0
2014-Sep-22 04:33N 49°14' W 122°46'0 0.0
2014-Sep-22 03:33N 49°14' W 122°46'0 0.0
2014-Sep-21 22:31N 49°14' W 122°46'0 0.0
2014-Sep-21 21:33N 49°14' W 122°46'0 0.0
2014-Sep-21 20:33N 49°14' W 122°46'0 0.0
2014-Sep-21 19:33N 49°14' W 122°46'0 0.0
2014-Sep-21 18:33N 49°14' W 122°46'0 0.0
2014-Sep-21 17:33N 49°14' W 122°46'0 0.0
2014-Sep-21 16:33N 49°14' W 122°46'0 0.0
2014-Sep-21 15:33N 49°14' W 122°46'0 0.0
2014-Sep-21 14:32N 49°14' W 122°46'0 0.0
2014-Sep-21 13:33N 49°14' W 122°46'0 0.0
2014-Sep-21 12:28N 49°14' W 122°46'0 0.0
2014-Sep-21 11:33N 49°14' W 122°46'0 0.0
2014-Sep-21 10:33N 49°14' W 122°46'0 0.0
2014-Sep-21 09:33N 49°14' W 122°46'4 3.9
2014-Sep-21 08:33N 49°13' W 122°52'8 7.5
2014-Sep-21 07:33N 49°09' W 123°02'  

Dump ship's entire track history